Acme, Michigan
Current Conditions -  °F | °C
As of 5:53 PM on Saturday 25 Oct 2014 (Local Time) from KTVC Reporting Station
Clear Clear  
Wind Chill: 60°   Ceiling: Unl
Heat Index: 60°   Visibility: 10mi
Dew Point: 31°   Wind: 17mph
Humidity: 33%   Direction: 280°W
Pressure: 29.74"   Gusts: 23mph
Location:  44.77°N, 85.5°W
Report Text: KTVC 252153Z 28015G20KT 10SM CLR 16/M01 A2974 RMK AO2 PK WND 27028/2101 SLP070 T01561006
Loading
Personal Weather Stations






























Interactive Weather Map New forecast layout! Learn more

10-Day Weather Forecast

Advertisements
Track Severe Weather on mobile